sensor_id;sensor_type;location;lat;lon;timestamp;P1;durP1;ratioP1;P2;durP2;ratioP2
80253;SDS011;69563;37.974;23.708;2023-04-25T00:00:26;5.68;;;3.20;;
80253;SDS011;69563;37.974;23.708;2023-04-25T00:02:52;5.68;;;3.90;;
80253;SDS011;69563;37.974;23.708;2023-04-25T00:05:17;7.05;;;3.60;;
80253;SDS011;69563;37.974;23.708;2023-04-25T00:07:44;6.18;;;3.70;;
80253;SDS011;69563;37.974;23.708;2023-04-25T00:10:11;7.40;;;3.63;;
80253;SDS011;69563;37.974;23.708;2023-04-25T00:12:37;6.00;;;3.70;;
80253;SDS011;69563;37.974;23.708;2023-04-25T00:15:04;6.05;;;3.65;;
80253;SDS011;69563;37.974;23.708;2023-04-25T00:17:30;6.03;;;3.53;;
80253;SDS011;69563;37.974;23.708;2023-04-25T00:19:56;5.78;;;3.40;;
80253;SDS011;69563;37.974;23.708;2023-04-25T00:22:23;6.03;;;3.55;;
80253;SDS011;69563;37.974;23.708;2023-04-25T00:24:49;6.32;;;3.42;;
80253;SDS011;69563;37.974;23.708;2023-04-25T00:27:15;4.95;;;3.40;;
80253;SDS011;69563;37.974;23.708;2023-04-25T00:29:41;5.25;;;3.33;;
80253;SDS011;69563;37.974;23.708;2023-04-25T00:32:06;5.72;;;3.42;;
80253;SDS011;69563;37.974;23.708;2023-04-25T00:34:32;6.05;;;3.40;;
80253;SDS011;69563;37.974;23.708;2023-04-25T00:36:58;5.25;;;3.70;;
80253;SDS011;69563;37.974;23.708;2023-04-25T00:39:26;6.22;;;3.60;;
80253;SDS011;69563;37.974;23.708;2023-04-25T00:41:52;5.32;;;3.33;;
80253;SDS011;69563;37.974;23.708;2023-04-25T00:44:19;5.95;;;3.40;;
80253;SDS011;69563;37.974;23.708;2023-04-25T00:46:46;4.60;;;3.30;;
80253;SDS011;69563;37.974;23.708;2023-04-25T00:49:14;5.30;;;3.40;;
80253;SDS011;69563;37.974;23.708;2023-04-25T00:51:42;6.57;;;3.63;;
80253;SDS011;69563;37.974;23.708;2023-04-25T00:54:10;6.50;;;3.60;;
80253;SDS011;69563;37.974;23.708;2023-04-25T00:56:37;5.30;;;3.47;;
80253;SDS011;69563;37.974;23.708;2023-04-25T00:59:03;4.80;;;3.10;;
80253;SDS011;69563;37.974;23.708;2023-04-25T01:01:29;5.68;;;3.50;;
80253;SDS011;69563;37.974;23.708;2023-04-25T01:03:56;6.50;;;3.50;;
80253;SDS011;69563;37.974;23.708;2023-04-25T01:06:24;5.90;;;3.33;;
80253;SDS011;69563;37.974;23.708;2023-04-25T01:08:51;5.85;;;3.60;;
80253;SDS011;69563;37.974;23.708;2023-04-25T01:11:17;5.80;;;3.35;;
80253;SDS011;69563;37.974;23.708;2023-04-25T01:13:42;5.43;;;3.30;;
80253;SDS011;69563;37.974;23.708;2023-04-25T01:16:08;4.63;;;3.15;;
80253;SDS011;69563;37.974;23.708;2023-04-25T01:18:34;4.78;;;3.38;;
80253;SDS011;69563;37.974;23.708;2023-04-25T01:21:10;6.18;;;3.35;;
80253;SDS011;69563;37.974;23.708;2023-04-25T01:23:38;6.05;;;3.40;;
80253;SDS011;69563;37.974;23.708;2023-04-25T01:26:08;5.75;;;2.88;;
80253;SDS011;69563;37.974;23.708;2023-04-25T01:28:35;6.53;;;3.58;;
80253;SDS011;69563;37.974;23.708;2023-04-25T01:31:01;4.65;;;3.20;;
80253;SDS011;69563;37.974;23.708;2023-04-25T01:33:29;5.82;;;3.20;;
80253;SDS011;69563;37.974;23.708;2023-04-25T01:35:55;4.90;;;3.15;;
80253;SDS011;69563;37.974;23.708;2023-04-25T01:38:21;4.88;;;3.10;;
80253;SDS011;69563;37.974;23.708;2023-04-25T01:40:47;5.25;;;3.20;;
80253;SDS011;69563;37.974;23.708;2023-04-25T01:43:15;5.53;;;3.30;;
80253;SDS011;69563;37.974;23.708;2023-04-25T01:45:41;4.97;;;3.53;;
80253;SDS011;69563;37.974;23.708;2023-04-25T01:48:11;5.93;;;3.88;;
80253;SDS011;69563;37.974;23.708;2023-04-25T01:50:38;5.45;;;3.22;;
80253;SDS011;69563;37.974;23.708;2023-04-25T01:53:05;5.38;;;3.45;;
80253;SDS011;69563;37.974;23.708;2023-04-25T01:55:31;6.18;;;3.35;;
80253;SDS011;69563;37.974;23.708;2023-04-25T01:57:57;4.60;;;2.80;;
80253;SDS011;69563;37.974;23.708;2023-04-25T02:00:24;4.15;;;2.90;;
80253;SDS011;69563;37.974;23.708;2023-04-25T02:02:49;4.95;;;3.15;;
80253;SDS011;69563;37.974;23.708;2023-04-25T02:05:16;4.63;;;2.97;;
80253;SDS011;69563;37.974;23.708;2023-04-25T02:07:42;4.68;;;3.10;;
80253;SDS011;69563;37.974;23.708;2023-04-25T02:10:09;5.57;;;3.35;;
80253;SDS011;69563;37.974;23.708;2023-04-25T02:12:35;4.68;;;3.00;;
80253;SDS011;69563;37.974;23.708;2023-04-25T02:15:01;4.40;;;3.10;;
80253;SDS011;69563;37.974;23.708;2023-04-25T02:17:27;5.05;;;3.17;;
80253;SDS011;69563;37.974;23.708;2023-04-25T02:19:53;4.80;;;3.20;;
80253;SDS011;69563;37.974;23.708;2023-04-25T02:22:19;4.95;;;2.90;;
80253;SDS011;69563;37.974;23.708;2023-04-25T02:24:45;4.80;;;3.28;;
80253;SDS011;69563;37.974;23.708;2023-04-25T02:27:11;6.63;;;3.30;;
80253;SDS011;69563;37.974;23.708;2023-04-25T02:29:37;5.35;;;3.00;;
80253;SDS011;69563;37.974;23.708;2023-04-25T02:32:03;6.60;;;3.20;;
80253;SDS011;69563;37.974;23.708;2023-04-25T02:34:29;5.15;;;3.20;;
80253;SDS011;69563;37.974;23.708;2023-04-25T02:36:55;5.47;;;2.95;;
80253;SDS011;69563;37.974;23.708;2023-04-25T02:39:21;4.85;;;2.90;;
80253;SDS011;69563;37.974;23.708;2023-04-25T02:41:47;5.47;;;3.00;;
80253;SDS011;69563;37.974;23.708;2023-04-25T02:44:12;5.53;;;3.30;;
80253;SDS011;69563;37.974;23.708;2023-04-25T02:46:38;5.38;;;3.00;;
80253;SDS011;69563;37.974;23.708;2023-04-25T02:49:04;6.85;;;3.05;;
80253;SDS011;69563;37.974;23.708;2023-04-25T02:51:30;6.70;;;2.97;;
80253;SDS011;69563;37.974;23.708;2023-04-25T02:53:56;6.45;;;3.22;;
80253;SDS011;69563;37.974;23.708;2023-04-25T02:56:21;4.82;;;3.00;;
80253;SDS011;69563;37.974;23.708;2023-04-25T02:58:47;8.25;;;3.35;;
80253;SDS011;69563;37.974;23.708;2023-04-25T03:01:13;7.90;;;3.30;;
80253;SDS011;69563;37.974;23.708;2023-04-25T03:03:39;5.68;;;3.03;;
80253;SDS011;69563;37.974;23.708;2023-04-25T03:06:04;6.90;;;3.28;;
80253;SDS011;69563;37.974;23.708;2023-04-25T03:08:30;5.43;;;3.10;;
80253;SDS011;69563;37.974;23.708;2023-04-25T03:10:57;5.03;;;3.00;;
80253;SDS011;69563;37.974;23.708;2023-04-25T03:13:24;5.40;;;3.20;;
80253;SDS011;69563;37.974;23.708;2023-04-25T03:15:49;6.03;;;3.20;;
80253;SDS011;69563;37.974;23.708;2023-04-25T03:18:15;6.95;;;3.08;;
80253;SDS011;69563;37.974;23.708;2023-04-25T03:20:41;7.22;;;3.38;;
80253;SDS011;69563;37.974;23.708;2023-04-25T03:23:07;5.70;;;3.40;;
80253;SDS011;69563;37.974;23.708;2023-04-25T03:25:33;5.47;;;3.30;;
80253;SDS011;69563;37.974;23.708;2023-04-25T03:27:59;5.05;;;3.20;;
80253;SDS011;69563;37.974;23.708;2023-04-25T03:30:24;4.85;;;2.97;;
80253;SDS011;69563;37.974;23.708;2023-04-25T03:32:50;6.70;;;3.15;;
80253;SDS011;69563;37.974;23.708;2023-04-25T03:35:16;10.40;;;4.07;;
80253;SDS011;69563;37.974;23.708;2023-04-25T03:37:41;6.30;;;2.83;;
80253;SDS011;69563;37.974;23.708;2023-04-25T03:40:10;7.15;;;3.00;;
80253;SDS011;69563;37.974;23.708;2023-04-25T03:42:36;6.28;;;3.10;;
80253;SDS011;69563;37.974;23.708;2023-04-25T03:45:02;5.85;;;3.03;;
80253;SDS011;69563;37.974;23.708;2023-04-25T03:47:28;6.00;;;3.03;;
80253;SDS011;69563;37.974;23.708;2023-04-25T03:49:54;6.57;;;2.78;;
80253;SDS011;69563;37.974;23.708;2023-04-25T03:52:20;6.03;;;3.20;;
80253;SDS011;69563;37.974;23.708;2023-04-25T03:54:45;9.02;;;3.33;;
80253;SDS011;69563;37.974;23.708;2023-04-25T03:57:11;7.65;;;3.22;;
80253;SDS011;69563;37.974;23.708;2023-04-25T03:59:37;6.63;;;3.25;;
80253;SDS011;69563;37.974;23.708;2023-04-25T04:02:03;6.80;;;3.15;;
80253;SDS011;69563;37.974;23.708;2023-04-25T04:04:28;10.32;;;3.45;;
80253;SDS011;69563;37.974;23.708;2023-04-25T04:06:55;10.80;;;3.08;;
80253;SDS011;69563;37.974;23.708;2023-04-25T04:09:20;9.20;;;3.45;;
80253;SDS011;69563;37.974;23.708;2023-04-25T04:11:46;8.63;;;3.80;;
80253;SDS011;69563;37.974;23.708;2023-04-25T04:14:12;11.30;;;3.63;;
80253;SDS011;69563;37.974;23.708;2023-04-25T04:16:38;12.38;;;3.90;;
80253;SDS011;69563;37.974;23.708;2023-04-25T04:19:04;32.53;;;4.85;;
80253;SDS011;69563;37.974;23.708;2023-04-25T04:21:30;15.95;;;4.32;;
80253;SDS011;69563;37.974;23.708;2023-04-25T04:23:56;24.20;;;4.13;;
80253;SDS011;69563;37.974;23.708;2023-04-25T04:26:24;16.40;;;3.70;;
80253;SDS011;69563;37.974;23.708;2023-04-25T04:28:51;23.65;;;4.50;;
80253;SDS011;69563;37.974;23.708;2023-04-25T04:31:19;17.77;;;4.38;;
80253;SDS011;69563;37.974;23.708;2023-04-25T04:33:48;11.90;;;3.42;;
80253;SDS011;69563;37.974;23.708;2023-04-25T04:36:15;17.17;;;4.00;;
80253;SDS011;69563;37.974;23.708;2023-04-25T04:38:41;12.90;;;3.90;;
80253;SDS011;69563;37.974;23.708;2023-04-25T04:41:07;16.77;;;3.90;;
80253;SDS011;69563;37.974;23.708;2023-04-25T04:43:33;9.73;;;4.03;;
80253;SDS011;69563;37.974;23.708;2023-04-25T04:46:02;8.43;;;3.50;;
80253;SDS011;69563;37.974;23.708;2023-04-25T04:48:29;12.10;;;3.80;;
80253;SDS011;69563;37.974;23.708;2023-04-25T04:50:58;10.40;;;3.95;;
80253;SDS011;69563;37.974;23.708;2023-04-25T04:53:23;10.02;;;3.50;;
80253;SDS011;69563;37.974;23.708;2023-04-25T04:55:49;10.25;;;3.63;;
80253;SDS011;69563;37.974;23.708;2023-04-25T04:58:15;9.43;;;3.50;;
80253;SDS011;69563;37.974;23.708;2023-04-25T05:00:41;10.55;;;3.78;;
80253;SDS011;69563;37.974;23.708;2023-04-25T05:03:06;10.65;;;3.53;;
80253;SDS011;69563;37.974;23.708;2023-04-25T05:05:32;8.25;;;3.60;;
80253;SDS011;69563;37.974;23.708;2023-04-25T05:07:58;8.63;;;3.70;;
80253;SDS011;69563;37.974;23.708;2023-04-25T05:10:23;9.82;;;3.40;;
80253;SDS011;69563;37.974;23.708;2023-04-25T05:12:50;9.23;;;3.90;;
80253;SDS011;69563;37.974;23.708;2023-04-25T05:15:16;11.60;;;3.63;;
80253;SDS011;69563;37.974;23.708;2023-04-25T05:17:42;6.22;;;3.53;;
80253;SDS011;69563;37.974;23.708;2023-04-25T05:20:07;10.45;;;4.63;;
80253;SDS011;69563;37.974;23.708;2023-04-25T05:22:34;13.50;;;5.07;;
80253;SDS011;69563;37.974;23.708;2023-04-25T05:25:00;8.63;;;4.47;;
80253;SDS011;69563;37.974;23.708;2023-04-25T05:27:26;10.35;;;3.90;;
80253;SDS011;69563;37.974;23.708;2023-04-25T05:29:52;7.25;;;4.45;;
80253;SDS011;69563;37.974;23.708;2023-04-25T05:32:17;9.90;;;4.22;;
80253;SDS011;69563;37.974;23.708;2023-04-25T05:34:43;8.63;;;4.03;;
80253;SDS011;69563;37.974;23.708;2023-04-25T05:37:09;9.10;;;4.25;;
80253;SDS011;69563;37.974;23.708;2023-04-25T05:39:35;7.28;;;3.75;;
80253;SDS011;69563;37.974;23.708;2023-04-25T05:42:01;8.35;;;3.42;;
80253;SDS011;69563;37.974;23.708;2023-04-25T05:44:27;8.00;;;3.20;;
80253;SDS011;69563;37.974;23.708;2023-04-25T05:46:53;6.88;;;3.30;;
80253;SDS011;69563;37.974;23.708;2023-04-25T05:49:18;7.35;;;3.45;;
80253;SDS011;69563;37.974;23.708;2023-04-25T05:51:44;8.73;;;3.22;;
80253;SDS011;69563;37.974;23.708;2023-04-25T05:54:10;7.97;;;3.33;;
80253;SDS011;69563;37.974;23.708;2023-04-25T05:56:36;7.03;;;3.17;;
80253;SDS011;69563;37.974;23.708;2023-04-25T05:59:01;6.47;;;2.88;;
80253;SDS011;69563;37.974;23.708;2023-04-25T06:01:28;6.93;;;3.10;;
80253;SDS011;69563;37.974;23.708;2023-04-25T06:03:53;6.22;;;2.83;;
80253;SDS011;69563;37.974;23.708;2023-04-25T06:06:19;5.00;;;2.50;;
80253;SDS011;69563;37.974;23.708;2023-04-25T06:08:45;4.07;;;2.35;;
80253;SDS011;69563;37.974;23.708;2023-04-25T06:11:11;4.90;;;2.20;;
80253;SDS011;69563;37.974;23.708;2023-04-25T06:13:37;8.75;;;2.50;;
80253;SDS011;69563;37.974;23.708;2023-04-25T06:16:02;5.20;;;2.33;;
80253;SDS011;69563;37.974;23.708;2023-04-25T06:18:28;5.28;;;2.28;;
80253;SDS011;69563;37.974;23.708;2023-04-25T06:20:54;5.55;;;1.92;;
80253;SDS011;69563;37.974;23.708;2023-04-25T06:23:20;3.80;;;1.83;;
80253;SDS011;69563;37.974;23.708;2023-04-25T06:25:45;4.80;;;2.17;;
80253;SDS011;69563;37.974;23.708;2023-04-25T06:28:11;3.75;;;1.80;;
80253;SDS011;69563;37.974;23.708;2023-04-25T06:30:37;3.33;;;1.65;;
80253;SDS011;69563;37.974;23.708;2023-04-25T06:33:02;4.15;;;1.77;;
80253;SDS011;69563;37.974;23.708;2023-04-25T06:35:28;2.65;;;1.60;;
80253;SDS011;69563;37.974;23.708;2023-04-25T06:37:54;5.97;;;1.70;;
80253;SDS011;69563;37.974;23.708;2023-04-25T06:40:19;3.20;;;1.65;;
80253;SDS011;69563;37.974;23.708;2023-04-25T06:42:45;4.72;;;1.90;;
80253;SDS011;69563;37.974;23.708;2023-04-25T06:45:12;2.80;;;1.50;;
80253;SDS011;69563;37.974;23.708;2023-04-25T06:47:38;3.33;;;1.60;;
80253;SDS011;69563;37.974;23.708;2023-04-25T06:50:04;3.35;;;1.63;;
80253;SDS011;69563;37.974;23.708;2023-04-25T06:52:30;4.28;;;1.60;;
80253;SDS011;69563;37.974;23.708;2023-04-25T06:54:56;4.85;;;1.60;;
80253;SDS011;69563;37.974;23.708;2023-04-25T06:57:23;4.57;;;1.30;;
80253;SDS011;69563;37.974;23.708;2023-04-25T06:59:49;4.32;;;1.55;;
80253;SDS011;69563;37.974;23.708;2023-04-25T07:02:14;5.20;;;1.73;;
80253;SDS011;69563;37.974;23.708;2023-04-25T07:04:40;3.88;;;1.75;;
80253;SDS011;69563;37.974;23.708;2023-04-25T07:07:06;4.80;;;1.88;;
80253;SDS011;69563;37.974;23.708;2023-04-25T07:09:31;4.07;;;2.05;;
80253;SDS011;69563;37.974;23.708;2023-04-25T07:11:58;3.33;;;1.70;;
80253;SDS011;69563;37.974;23.708;2023-04-25T07:14:26;4.30;;;2.08;;
80253;SDS011;69563;37.974;23.708;2023-04-25T07:16:52;4.07;;;1.75;;
80253;SDS011;69563;37.974;23.708;2023-04-25T07:19:20;4.43;;;2.00;;
80253;SDS011;69563;37.974;23.708;2023-04-25T07:21:46;5.07;;;1.80;;
80253;SDS011;69563;37.974;23.708;2023-04-25T07:24:12;4.20;;;1.60;;
80253;SDS011;69563;37.974;23.708;2023-04-25T07:26:38;4.70;;;1.52;;
80253;SDS011;69563;37.974;23.708;2023-04-25T07:29:03;3.40;;;1.70;;
80253;SDS011;69563;37.974;23.708;2023-04-25T07:31:29;3.80;;;1.60;;
80253;SDS011;69563;37.974;23.708;2023-04-25T07:33:55;3.50;;;1.55;;
80253;SDS011;69563;37.974;23.708;2023-04-25T07:36:21;2.45;;;1.60;;
80253;SDS011;69563;37.974;23.708;2023-04-25T07:38:46;4.68;;;1.52;;
80253;SDS011;69563;37.974;23.708;2023-04-25T07:41:12;5.60;;;1.60;;
80253;SDS011;69563;37.974;23.708;2023-04-25T07:43:38;5.47;;;2.10;;
80253;SDS011;69563;37.974;23.708;2023-04-25T07:46:04;4.47;;;2.08;;
80253;SDS011;69563;37.974;23.708;2023-04-25T07:48:31;5.65;;;1.73;;
80253;SDS011;69563;37.974;23.708;2023-04-25T07:50:57;3.17;;;1.65;;
80253;SDS011;69563;37.974;23.708;2023-04-25T07:53:22;3.75;;;1.60;;
80253;SDS011;69563;37.974;23.708;2023-04-25T07:55:48;6.35;;;1.75;;
80253;SDS011;69563;37.974;23.708;2023-04-25T07:58:14;5.07;;;1.80;;
80253;SDS011;69563;37.974;23.708;2023-04-25T08:00:40;4.30;;;1.63;;
80253;SDS011;69563;37.974;23.708;2023-04-25T08:03:07;3.08;;;1.50;;
80253;SDS011;69563;37.974;23.708;2023-04-25T08:05:34;3.83;;;1.60;;
80253;SDS011;69563;37.974;23.708;2023-04-25T08:08:00;5.95;;;1.73;;
80253;SDS011;69563;37.974;23.708;2023-04-25T08:10:27;4.38;;;1.60;;
80253;SDS011;69563;37.974;23.708;2023-04-25T08:12:52;3.75;;;1.80;;
80253;SDS011;69563;37.974;23.708;2023-04-25T08:15:18;4.10;;;1.55;;
80253;SDS011;69563;37.974;23.708;2023-04-25T08:17:45;2.45;;;1.33;;
80253;SDS011;69563;37.974;23.708;2023-04-25T08:20:10;2.75;;;1.60;;
80253;SDS011;69563;37.974;23.708;2023-04-25T08:22:36;2.53;;;1.38;;
80253;SDS011;69563;37.974;23.708;2023-04-25T08:25:02;4.22;;;1.60;;
80253;SDS011;69563;37.974;23.708;2023-04-25T08:27:28;5.25;;;1.60;;
80253;SDS011;69563;37.974;23.708;2023-04-25T08:29:54;3.17;;;1.63;;
80253;SDS011;69563;37.974;23.708;2023-04-25T08:32:20;3.83;;;1.70;;
80253;SDS011;69563;37.974;23.708;2023-04-25T08:34:46;3.78;;;1.30;;
80253;SDS011;69563;37.974;23.708;2023-04-25T08:37:12;2.78;;;1.60;;
80253;SDS011;69563;37.974;23.708;2023-04-25T08:39:37;6.18;;;1.50;;
80253;SDS011;69563;37.974;23.708;2023-04-25T08:42:05;2.65;;;1.42;;
80253;SDS011;69563;37.974;23.708;2023-04-25T08:44:35;3.40;;;1.50;;
80253;SDS011;69563;37.974;23.708;2023-04-25T08:47:04;2.85;;;1.55;;
80253;SDS011;69563;37.974;23.708;2023-04-25T08:49:34;2.80;;;1.48;;
80253;SDS011;69563;37.974;23.708;2023-04-25T08:52:04;2.67;;;1.30;;
80253;SDS011;69563;37.974;23.708;2023-04-25T08:54:31;2.85;;;1.50;;
80253;SDS011;69563;37.974;23.708;2023-04-25T08:56:59;2.88;;;1.50;;
80253;SDS011;69563;37.974;23.708;2023-04-25T09:01:55;4.47;;;1.40;;
80253;SDS011;69563;37.974;23.708;2023-04-25T09:04:21;3.03;;;1.60;;
80253;SDS011;69563;37.974;23.708;2023-04-25T09:06:47;4.75;;;1.42;;
80253;SDS011;69563;37.974;23.708;2023-04-25T09:09:13;5.30;;;1.42;;
80253;SDS011;69563;37.974;23.708;2023-04-25T09:11:39;2.50;;;1.30;;
80253;SDS011;69563;37.974;23.708;2023-04-25T09:14:20;4.05;;;1.50;;
80253;SDS011;69563;37.974;23.708;2023-04-25T09:21:56;2.63;;;1.30;;
80253;SDS011;69563;37.974;23.708;2023-04-25T09:24:40;3.80;;;1.40;;
80253;SDS011;69563;37.974;23.708;2023-04-25T09:27:10;3.05;;;1.70;;
80253;SDS011;69563;37.974;23.708;2023-04-25T09:29:38;4.15;;;1.65;;
80253;SDS011;69563;37.974;23.708;2023-04-25T09:34:44;3.33;;;1.50;;
80253;SDS011;69563;37.974;23.708;2023-04-25T09:37:28;3.92;;;1.77;;
80253;SDS011;69563;37.974;23.708;2023-04-25T09:39:58;3.28;;;1.90;;
80253;SDS011;69563;37.974;23.708;2023-04-25T09:42:28;3.97;;;1.70;;
80253;SDS011;69563;37.974;23.708;2023-04-25T09:44:57;4.05;;;1.80;;
80253;SDS011;69563;37.974;23.708;2023-04-25T09:47:24;3.45;;;1.70;;
80253;SDS011;69563;37.974;23.708;2023-04-25T09:49:54;4.40;;;1.95;;
80253;SDS011;69563;37.974;23.708;2023-04-25T09:52:50;2.72;;;1.70;;
80253;SDS011;69563;37.974;23.708;2023-04-25T09:55:31;3.65;;;1.70;;
80253;SDS011;69563;37.974;23.708;2023-04-25T09:58:00;3.83;;;1.70;;
80253;SDS011;69563;37.974;23.708;2023-04-25T10:00:33;4.85;;;1.67;;
80253;SDS011;69563;37.974;23.708;2023-04-25T10:03:03;4.10;;;1.77;;
80253;SDS011;69563;37.974;23.708;2023-04-25T10:05:32;3.63;;;1.70;;
80253;SDS011;69563;37.974;23.708;2023-04-25T10:08:02;5.20;;;1.80;;
80253;SDS011;69563;37.974;23.708;2023-04-25T10:10:29;4.57;;;1.90;;
80253;SDS011;69563;37.974;23.708;2023-04-25T10:13:01;4.88;;;1.60;;
80253;SDS011;69563;37.974;23.708;2023-04-25T10:15:31;2.78;;;1.50;;
80253;SDS011;69563;37.974;23.708;2023-04-25T10:18:00;4.22;;;1.70;;
80253;SDS011;69563;37.974;23.708;2023-04-25T10:20:26;4.55;;;1.40;;
80253;SDS011;69563;37.974;23.708;2023-04-25T10:22:52;3.83;;;1.40;;
80253;SDS011;69563;37.974;23.708;2023-04-25T10:25:21;3.13;;;1.50;;
80253;SDS011;69563;37.974;23.708;2023-04-25T10:27:50;1.77;;;1.20;;
80253;SDS011;69563;37.974;23.708;2023-04-25T10:30:16;4.55;;;1.48;;
80253;SDS011;69563;37.974;23.708;2023-04-25T10:32:43;2.80;;;1.38;;
80253;SDS011;69563;37.974;23.708;2023-04-25T10:35:14;2.65;;;1.60;;
80253;SDS011;69563;37.974;23.708;2023-04-25T10:37:56;2.92;;;1.50;;
80253;SDS011;69563;37.974;23.708;2023-04-25T10:40:35;3.80;;;1.65;;
80253;SDS011;69563;37.974;23.708;2023-04-25T10:48:45;5.47;;;2.00;;
80253;SDS011;69563;37.974;23.708;2023-04-25T10:51:16;5.47;;;1.75;;
80253;SDS011;69563;37.974;23.708;2023-04-25T10:53:44;3.35;;;1.70;;
80253;SDS011;69563;37.974;23.708;2023-04-25T10:56:17;4.30;;;1.73;;
80253;SDS011;69563;37.974;23.708;2023-04-25T10:58:46;4.60;;;1.80;;
80253;SDS011;69563;37.974;23.708;2023-04-25T11:01:19;3.47;;;1.52;;
80253;SDS011;69563;37.974;23.708;2023-04-25T11:03:46;3.10;;;1.48;;
80253;SDS011;69563;37.974;23.708;2023-04-25T11:09:25;3.45;;;1.60;;
80253;SDS011;69563;37.974;23.708;2023-04-25T11:11:54;3.53;;;1.40;;
80253;SDS011;69563;37.974;23.708;2023-04-25T11:14:25;4.10;;;1.58;;
80253;SDS011;69563;37.974;23.708;2023-04-25T11:16:57;5.10;;;1.50;;
80253;SDS011;69563;37.974;23.708;2023-04-25T11:19:24;2.97;;;1.60;;
80253;SDS011;69563;37.974;23.708;2023-04-25T11:21:54;4.78;;;1.40;;
80253;SDS011;69563;37.974;23.708;2023-04-25T11:24:42;3.13;;;1.42;;
80253;SDS011;69563;37.974;23.708;2023-04-25T11:27:08;4.93;;;1.45;;
80253;SDS011;69563;37.974;23.708;2023-04-25T11:29:34;3.47;;;1.50;;
80253;SDS011;69563;37.974;23.708;2023-04-25T11:32:00;3.67;;;1.60;;
80253;SDS011;69563;37.974;23.708;2023-04-25T11:34:27;3.03;;;1.42;;
80253;SDS011;69563;37.974;23.708;2023-04-25T11:36:56;3.30;;;1.50;;
80253;SDS011;69563;37.974;23.708;2023-04-25T11:39:23;4.82;;;1.73;;
80253;SDS011;69563;37.974;23.708;2023-04-25T11:41:49;3.88;;;1.40;;
80253;SDS011;69563;37.974;23.708;2023-04-25T11:44:16;3.03;;;1.42;;
80253;SDS011;69563;37.974;23.708;2023-04-25T11:46:43;3.15;;;1.50;;
80253;SDS011;69563;37.974;23.708;2023-04-25T11:49:09;2.60;;;1.42;;
80253;SDS011;69563;37.974;23.708;2023-04-25T11:51:42;2.17;;;1.30;;
80253;SDS011;69563;37.974;23.708;2023-04-25T11:54:09;3.88;;;1.38;;
80253;SDS011;69563;37.974;23.708;2023-04-25T11:56:36;2.50;;;1.50;;
80253;SDS011;69563;37.974;23.708;2023-04-25T11:59:03;4.53;;;1.50;;
80253;SDS011;69563;37.974;23.708;2023-04-25T12:01:37;4.88;;;1.45;;
80253;SDS011;69563;37.974;23.708;2023-04-25T12:06:59;5.22;;;1.30;;
80253;SDS011;69563;37.974;23.708;2023-04-25T12:09:30;4.10;;;1.42;;
80253;SDS011;69563;37.974;23.708;2023-04-25T12:11:58;2.60;;;1.30;;
80253;SDS011;69563;37.974;23.708;2023-04-25T12:14:29;3.05;;;1.50;;
80253;SDS011;69563;37.974;23.708;2023-04-25T12:17:00;4.35;;;1.60;;
80253;SDS011;69563;37.974;23.708;2023-04-25T12:19:36;3.92;;;1.50;;
80253;SDS011;69563;37.974;23.708;2023-04-25T12:22:18;3.38;;;1.50;;
80253;SDS011;69563;37.974;23.708;2023-04-25T12:27:05;3.65;;;1.95;;
80253;SDS011;69563;37.974;23.708;2023-04-25T12:29:33;4.22;;;1.90;;
80253;SDS011;69563;37.974;23.708;2023-04-25T12:31:59;4.00;;;1.60;;
80253;SDS011;69563;37.974;23.708;2023-04-25T12:34:28;3.88;;;2.00;;
80253;SDS011;69563;37.974;23.708;2023-04-25T12:36:56;4.22;;;1.80;;
80253;SDS011;69563;37.974;23.708;2023-04-25T12:39:23;2.78;;;1.55;;
80253;SDS011;69563;37.974;23.708;2023-04-25T12:41:50;5.38;;;1.98;;
80253;SDS011;69563;37.974;23.708;2023-04-25T12:44:20;2.78;;;1.75;;
80253;SDS011;69563;37.974;23.708;2023-04-25T12:46:46;4.07;;;1.77;;
80253;SDS011;69563;37.974;23.708;2023-04-25T12:49:13;3.17;;;1.50;;
80253;SDS011;69563;37.974;23.708;2023-04-25T12:51:38;2.22;;;1.35;;
80253;SDS011;69563;37.974;23.708;2023-04-25T12:54:05;2.55;;;1.55;;
80253;SDS011;69563;37.974;23.708;2023-04-25T12:56:34;2.42;;;1.40;;
80253;SDS011;69563;37.974;23.708;2023-04-25T12:59:04;3.60;;;1.52;;
80253;SDS011;69563;37.974;23.708;2023-04-25T13:01:29;2.35;;;1.40;;
80253;SDS011;69563;37.974;23.708;2023-04-25T13:03:55;2.40;;;1.60;;
80253;SDS011;69563;37.974;23.708;2023-04-25T13:06:21;4.35;;;1.52;;
80253;SDS011;69563;37.974;23.708;2023-04-25T13:08:47;2.05;;;1.15;;
80253;SDS011;69563;37.974;23.708;2023-04-25T13:11:13;2.60;;;1.35;;
80253;SDS011;69563;37.974;23.708;2023-04-25T13:13:41;3.08;;;1.30;;
80253;SDS011;69563;37.974;23.708;2023-04-25T13:16:07;2.75;;;1.50;;
80253;SDS011;69563;37.974;23.708;2023-04-25T13:18:33;2.78;;;1.40;;
80253;SDS011;69563;37.974;23.708;2023-04-25T13:21:00;4.38;;;1.83;;
80253;SDS011;69563;37.974;23.708;2023-04-25T13:23:26;4.15;;;1.92;;
80253;SDS011;69563;37.974;23.708;2023-04-25T13:25:54;4.15;;;1.80;;
80253;SDS011;69563;37.974;23.708;2023-04-25T13:28:22;5.78;;;1.60;;
80253;SDS011;69563;37.974;23.708;2023-04-25T13:30:49;3.40;;;1.63;;
80253;SDS011;69563;37.974;23.708;2023-04-25T13:33:14;4.60;;;1.90;;
80253;SDS011;69563;37.974;23.708;2023-04-25T13:35:41;4.10;;;1.50;;
80253;SDS011;69563;37.974;23.708;2023-04-25T13:38:07;3.08;;;1.48;;
80253;SDS011;69563;37.974;23.708;2023-04-25T13:40:33;5.88;;;1.70;;
80253;SDS011;69563;37.974;23.708;2023-04-25T13:42:59;3.22;;;1.60;;
80253;SDS011;69563;37.974;23.708;2023-04-25T13:45:26;2.47;;;1.58;;
80253;SDS011;69563;37.974;23.708;2023-04-25T13:47:52;3.22;;;1.50;;
80253;SDS011;69563;37.974;23.708;2023-04-25T13:50:17;3.13;;;1.50;;
80253;SDS011;69563;37.974;23.708;2023-04-25T13:52:43;3.25;;;1.58;;
80253;SDS011;69563;37.974;23.708;2023-04-25T13:55:10;5.13;;;1.70;;
80253;SDS011;69563;37.974;23.708;2023-04-25T13:57:36;2.65;;;1.60;;
80253;SDS011;69563;37.974;23.708;2023-04-25T14:00:03;2.65;;;1.40;;
80253;SDS011;69563;37.974;23.708;2023-04-25T14:02:33;4.60;;;1.60;;
80253;SDS011;69563;37.974;23.708;2023-04-25T14:05:00;2.15;;;1.30;;
80253;SDS011;69563;37.974;23.708;2023-04-25T14:07:26;2.67;;;1.50;;
80253;SDS011;69563;37.974;23.708;2023-04-25T14:09:52;3.22;;;1.70;;
80253;SDS011;69563;37.974;23.708;2023-04-25T14:12:17;2.45;;;1.40;;
80253;SDS011;69563;37.974;23.708;2023-04-25T14:14:43;2.38;;;1.50;;
80253;SDS011;69563;37.974;23.708;2023-04-25T14:17:09;2.67;;;1.40;;
80253;SDS011;69563;37.974;23.708;2023-04-25T14:19:35;1.92;;;1.30;;
80253;SDS011;69563;37.974;23.708;2023-04-25T14:22:02;3.80;;;1.60;;
80253;SDS011;69563;37.974;23.708;2023-04-25T14:24:28;2.78;;;1.48;;
80253;SDS011;69563;37.974;23.708;2023-04-25T14:26:54;2.72;;;1.50;;
80253;SDS011;69563;37.974;23.708;2023-04-25T14:29:19;3.85;;;1.70;;
80253;SDS011;69563;37.974;23.708;2023-04-25T14:31:45;3.95;;;1.80;;
80253;SDS011;69563;37.974;23.708;2023-04-25T14:34:11;3.22;;;1.70;;
80253;SDS011;69563;37.974;23.708;2023-04-25T14:36:37;2.03;;;1.50;;
80253;SDS011;69563;37.974;23.708;2023-04-25T14:39:04;2.45;;;1.45;;
80253;SDS011;69563;37.974;23.708;2023-04-25T14:41:33;3.00;;;1.77;;
80253;SDS011;69563;37.974;23.708;2023-04-25T14:43:59;2.80;;;1.70;;
80253;SDS011;69563;37.974;23.708;2023-04-25T14:46:25;3.05;;;1.65;;
80253;SDS011;69563;37.974;23.708;2023-04-25T14:48:50;3.40;;;1.60;;
80253;SDS011;69563;37.974;23.708;2023-04-25T14:51:16;2.80;;;1.50;;
80253;SDS011;69563;37.974;23.708;2023-04-25T14:53:42;3.65;;;1.90;;
80253;SDS011;69563;37.974;23.708;2023-04-25T14:56:08;3.47;;;1.60;;